sept
11

MX FIM – GP D’ITALIE : RÉSULTATS ET INFOS

SAMEDI

MX1 – Pre-Qualifying Practice – Classification
Pos Nr Rider Nat. Fed. Bike Bestlaptime in lap Diff. First Diff. Prev. Tot. Laps Speed
1 377 Pourcel, Christophe FRA FFM Kawasaki 1:53.645 7 0:00.000 0:00.000 8 31.678

2 2 Nagl, Maximilian GER DMSB KTM 1:54.427 6 0:00.782 0:00.782 6 31.461
3 39 Guarneri, Davide ITA FMI Kawasaki 1:54.477 13 0:00.832 0:00.050 13 31.447
4 999 Goncalves, Rui POR FMP Honda 1:54.974 11 0:01.329 0:00.497 11 31.311
5 321 Paulin, Gautier FRA MCM Yamaha 1:55.207 8 0:01.562 0:00.233 10 31.248
6 121 Boog, Xavier FRA FFM Kawasaki 1:55.235 10 0:01.590 0:00.028 10 31.241

7 7 Barragan, Jonathan ESP RFME Kawasaki 1:55.441 10 0:01.796 0:00.206 10 31.185
8 10 Boissiere, Anthony FRA FFM Yamaha 1:55.450 9 0:01.805 0:00.009 11 31.182
9 22 Strijbos, Kevin BEL FMB Suzuki 1:56.147 10 0:02.502 0:00.697 12 30.995
10 777 Bobryshev, Evgeny RUS MFR Honda 1:56.182 10 0:02.537 0:00.035 11 30.986
11 20 Aranda, Gregory FRA FFM Kawasaki 1:56.363 9 0:02.718 0:00.181 10 30.938
12 24 Simpson, Shaun GBR ACU Honda 1:57.093 10 0:03.448 0:00.730 10 30.745
13 13 Monni, Manuel ITA FMI Honda 1:57.826 8 0:04.181 0:00.733 11 30.554
14 6 Leok, Tanel EST EMF TM 1:57.951 11 0:04.306 0:00.125 12 30.521
15 85 Compagnone, Felice ITA FMI Honda 1:58.549 9 0:04.904 0:00.598 9 30.367
16 902 Cooper, Cody NZL MNZ Suzuki 1:59.061 10 0:05.416 0:00.512 10 30.237
17 115 Campano Jimenez, Carlos ESP RFME Yamaha 1:59.483 11 0:05.838 0:00.422 11 30.13
18 287 Schiffer, Marcus GER DMSB Suzuki 2:00.650 7 0:07.005 0:01.167 9 29.838
19 153 Maddii, Marco ITA FMI KTM 2:00.875 6 0:07.230 0:00.225 9 29.783
20 903 Balbi, Antonio Jorge BRA CBM Kawasaki 2:00.943 8 0:07.298 0:00.068 9 29.766
21 60 Van Daele, Marvin BEL FMB Honda 2:02.205 8 0:08.560 0:01.262 8 29.459
22 141 Church, Tom GBR ACU KTM 2:02.383 8 0:08.738 0:00.178 9 29.416
23 52 Walkner, Matthias AUT OeAMTC KTM 2:02.387 9 0:08.742 0:00.004 11 29.415
24 221 Valente, Alessandro ITA FMI Suzuki 2:02.397 9 0:08.752 0:00.010 10 29.412
25 61 Brakke, Herjan NED KNMV Yamaha 2:03.507 10 0:09.862 0:01.110 13 29.148
26 84 Bracesco, Federico ITA FMI Suzuki 2:03.816 10 0:10.171 0:00.309 12 29.075
27 41 Smith, Alfie GBR ACU Aprilia 2:04.599 7 0:10.954 0:00.783 11 28.893
28 74 Steinbergs, Ivo LAT LAMSF Kawasaki 2:05.329 6 0:11.684 0:00.730 7 28.724
29 63 Sturm, Robert GER DMSB Kawasaki 2:06.467 11 0:12.822 0:01.138 11 28.466
30 127 Eriksson, Toni FIN SML Kawasaki 2:06.557 7 0:12.912 0:00.090 9 28.446

MANCHE QUALIFICATIVE MX1

Holeshot de Goncalves.. Bobryshev prend la tête de course.. Chute de Christophe Pourcel..! Xavier Boog second.. Gautier Paulin va alors pratiquer son effort et revenir sur Bobyshev et passe en tête à 15 min de la fin.. Abandon d’Aranda à 4 min de la fin.. Christophe Pourcel 13 Ème.. Très belle qualif’ de Xavier Boog qui termine second..

MX1 – Qualifying Race – Classification
Pos Nr Rider Nat. Fed. Bike Time laps Diff. First Diff. Prev. Bestlaptime in lap Speed
1 321 Paulin, Gautier FRA MCM Yamaha 25:27.578 13 0:00.000 0:00.000 1:53.066 3 31.84
2 121 Boog, Xavier FRA FFM Kawasaki 25:37.012 13 0:09.434 0:09.434 1:55.450 6 31.182

3 777 Bobryshev, Evgeny RUS MFR Honda 25:44.370 13 0:16.792 0:07.358 1:55.358 5 31.207
4 999 Goncalves, Rui POR FMP Honda 25:44.620 13 0:17.042 0:00.250 1:56.430 6 30.92
5 10 Boissiere, Anthony FRA FFM Yamaha 25:46.367 13 0:18.789 0:01.747 1:56.116 4 31.003
6 22 Strijbos, Kevin BEL FMB Suzuki 25:46.615 13 0:19.037 0:00.248 1:55.143 11 31.265
7 7 Barragan, Jonathan ESP RFME Kawasaki 25:57.721 13 0:30.143 0:11.106 1:55.602 11 31.141
8 115 Campano Jimenez, Carlos ESP RFME Yamaha 26:02.706 13 0:35.128 0:04.985 1:56.671 6 30.856
9 39 Guarneri, Davide ITA FMI Kawasaki 26:07.188 13 0:39.610 0:04.482 1:56.771 6 30.83
10 24 Simpson, Shaun GBR ACU Honda 26:16.742 13 0:49.164 0:09.554 1:57.609 3 30.61
11 377 Pourcel, Christophe FRA FFM Kawasaki 26:48.820 13 1:21.242 0:32.078 1:56.040 9 31.024
12 903 Balbi, Antonio Jorge BRA CBM Kawasaki 26:50.300 13 1:22.722 0:01.480 2:00.471 3 29.883
13 6 Leok, Tanel EST EMF TM 26:50.541 13 1:22.963 0:00.241 1:58.573 5 30.361
14 287 Schiffer, Marcus GER DMSB Suzuki 26:56.246 13 1:28.668 0:05.705 2:00.415 5 29.897
15 60 Van Daele, Marvin BEL FMB Honda 27:00.086 13 1:32.508 0:03.840 2:00.714 10 29.823
16 902 Cooper, Cody NZL MNZ Suzuki 27:06.074 13 1:38.496 0:05.988 2:00.423 7 29.895
17 61 Brakke, Herjan NED KNMV Yamaha 27:11.765 13 1:44.187 0:05.691 2:00.991 5 29.754
18 13 Monni, Manuel ITA FMI Honda 27:17.186 13 1:49.608 0:05.421 1:59.462 4 30.135
19 52 Walkner, Matthias AUT OeAMTC KTM 27:18.674 13 1:51.096 0:01.488 2:01.985 3 29.512
20 85 Compagnone, Felice ITA FMI Honda 25:15.432 12 1 lap 1 lap 1:59.734 4 30.067
21 153 Maddii, Marco ITA FMI KTM 25:35.228 12 1 lap 0:19.796 2:03.830 3 29.072
22 221 Valente, Alessandro ITA FMI Suzuki 26:00.352 12 1 lap 0:25.124 2:02.946 6 29.281
23 127 Eriksson, Toni FIN SML Kawasaki 26:12.858 12 1 lap 0:12.506 2:05.902 6 28.594
24 84 Bracesco, Federico ITA FMI Suzuki 26:49.407 12 1 lap 0:36.549 2:07.781 5 28.173
25 63 Sturm, Robert GER DMSB Kawasaki 27:33.891 12 1 lap 0:44.484 2:09.411 5 27.818
26 141 Church, Tom GBR ACU KTM 16:57.738 8 5 laps 4 laps 2:03.145 3 29.234
27 74 Steinbergs, Ivo LAT LAMSF Kawasaki 14:59.286 7 6 laps 1 lap 2:03.496 4 29.151
28 20 Aranda, Gregory FRA FFM Kawasaki 12:27.961 6 7 laps 1 lap 1:59.467 6 30.134..

DIMANCHE

MX1 – Warm-up – Classification
Pos Nr Rider Nat. Fed. Bike Bestlaptime in lap Diff. First Diff. Prev. Tot. Laps Speed
1 321 Paulin, Gautier FRA MCM Yamaha 1:52.981 6 0:00.000 0:00.000 6 31.864

2 7 Barragan, Jonathan ESP RFME Kawasaki 1:56.046 7 0:03.065 0:03.065 7 31.022
3 777 Bobryshev, Evgeny RUS MFR Honda 1:56.317 5 0:03.336 0:00.271 7 30.95
4 121 Boog, Xavier FRA FFM Kawasaki 1:57.187 7 0:04.206 0:00.870 9 30.72
5 20 Aranda, Gregory FRA FFM Kawasaki 1:57.421 6 0:04.440 0:00.234 7 30.659

6 13 Monni, Manuel ITA FMI Honda 1:57.760 7 0:04.779 0:00.339 7 30.571
7 999 Goncalves, Rui POR FMP Honda 1:57.931 7 0:04.950 0:00.171 8 30.526
8 115 Campano Jimenez, Carlos ESP RFME Yamaha 1:58.703 6 0:05.722 0:00.772 8 30.328
9 377 Pourcel, Christophe FRA FFM Kawasaki 1:59.349 4 0:06.368 0:00.646 5 30.164
10 10 Boissiere, Anthony FRA FFM Yamaha 1:59.361 4 0:06.380 0:00.012 7 30.161

11 6 Leok, Tanel EST EMF TM 1:59.752 8 0:06.771 0:00.391 8 30.062
12 24 Simpson, Shaun GBR ACU Honda 2:00.264 5 0:07.283 0:00.512 9 29.934
13 141 Church, Tom GBR ACU KTM 2:00.625 4 0:07.644 0:00.361 7 29.845
14 39 Guarneri, Davide ITA FMI Kawasaki 2:00.665 6 0:07.684 0:00.040 8 29.835
15 903 Balbi, Antonio Jorge BRA CBM Kawasaki 2:00.697 7 0:07.716 0:00.032 7 29.827
16 85 Compagnone, Felice ITA FMI Honda 2:01.179 5 0:08.198 0:00.482 9 29.708
17 287 Schiffer, Marcus GER DMSB Suzuki 2:01.523 6 0:08.542 0:00.344 9 29.624
18 52 Walkner, Matthias AUT OeAMTC KTM 2:01.844 8 0:08.863 0:00.321 8 29.546
19 902 Cooper, Cody NZL MNZ Suzuki 2:02.196 7 0:09.215 0:00.352 8 29.461
20 22 Strijbos, Kevin BEL FMB Suzuki 2:02.867 3 0:09.886 0:00.671 9 29.3..

1 ÈRE MANCHE MX1

Holeshot de Paulin..! Boog second.. Bobyshev 3 Ème.. Pourcel 5 Ème.. Barragan passe 3 Ème.. Strijbos passe Pourcel.. Barragan va aller à la faute à 19 min.. Abandon de Max Nagl.. Guarneri passe Pourcel puis Bobryshev.. Boissière passe Guarneri juste avant les 2 derniers tours.. Bobryshev passe Pourcel dans les 2 derniers tours..

MX1 – Grand Prix Race 1 – Classification
Pos Nr Rider Nat. Fed. Bike Time laps Diff. First Diff. Prev. Bestlaptime in lap Speed
1 321 Paulin, Gautier FRA MCM Yamaha 39:24.930 20 0:00.000 0:00.000 1:55.591 5 31.144
2 121 Boog, Xavier FRA FFM Kawasaki 39:36.709 20 0:11.779 0:11.779 1:56.671 13 30.856

3 22 Strijbos, Kevin BEL FMB Suzuki 39:44.264 20 0:19.334 0:07.555 1:56.139 9 30.997
4 7 Barragan, Jonathan ESP RFME Kawasaki 40:01.291 20 0:36.361 0:17.027 1:56.761 7 30.832
5 10 Boissiere, Anthony FRA FFM Yamaha 40:10.520 20 0:45.590 0:09.229 1:57.702 8 30.586
6 39 Guarneri, Davide ITA FMI Kawasaki 40:13.253 20 0:48.323 0:02.733 1:57.513 6 30.635
7 777 Bobryshev, Evgeny RUS MFR Honda 40:13.564 20 0:48.634 0:00.311 1:58.033 5 30.5
8 377 Pourcel, Christophe FRA FFM Kawasaki 40:21.742 20 0:56.812 0:08.178 1:57.920 6 30.529
9 999 Goncalves, Rui POR FMP Honda 40:22.071 20 0:57.141 0:00.329 1:58.935 15 30.269
10 20 Aranda, Gregory FRA FFM Kawasaki 40:44.293 20 1:19.363 0:22.222 1:58.398 7 30.406
11 13 Monni, Manuel ITA FMI Honda 41:39.122 20 2:14.192 0:54.829 2:00.598 9 29.851
12 287 Schiffer, Marcus GER DMSB Suzuki 39:40.312 19 1 lap 1 lap 2:02.470 7 29.395
13 6 Leok, Tanel EST EMF TM 39:57.124 19 1 lap 0:16.812 2:00.810 9 29.799
14 41 Smith, Alfie GBR ACU Aprilia 40:03.226 19 1 lap 0:06.102 2:02.563 11 29.373
15 60 Van Daele, Marvin BEL FMB Honda 40:09.880 19 1 lap 0:06.654 2:02.865 11 29.3
16 902 Cooper, Cody NZL MNZ Suzuki 41:04.536 19 1 lap 0:54.656 2:01.608 5 29.603
17 85 Compagnone, Felice ITA FMI Honda 41:07.582 19 1 lap 0:03.046 2:03.103 8 29.244
18 61 Brakke, Herjan NED KNMV Yamaha 41:10.458 19 1 lap 0:02.876 2:02.966 9 29.276
19 74 Steinbergs, Ivo LAT LAMSF Kawasaki 41:18.282 19 1 lap 0:07.824 2:06.406 13 28.48
20 221 Valente, Alessandro ITA FMI Suzuki 39:30.936 18 2 laps 1 lap 2:07.847 3 28.159
21 52 Walkner, Matthias AUT OeAMTC KTM 29:27.574 14 6 laps 4 laps 2:02.322 5 29.431
22 127 Eriksson, Toni FIN SML Kawasaki 28:31.422 13 7 laps 1 lap 2:07.174 4 28.308
23 903 Balbi, Antonio Jorge BRA CBM Kawasaki 23:53.792 11 9 laps 2 laps 2:04.835 8 28.838
24 153 Maddii, Marco ITA FMI KTM 21:20.589 10 10 laps 1 lap 2:04.647 5 28.882
25 115 Campano Jimenez, Carlos ESP RFME Yamaha 18:20.812 9 11 laps 1 lap 1:58.393 8 30.407
26 84 Bracesco, Federico ITA FMI Suzuki 18:05.723 8 12 laps 1 lap 2:11.142 6 27.451
27 2 Nagl, Maximilian GER DMSB KTM 14:32.849 7 13 laps 1 lap 2:00.075 5 29.981
28 63 Sturm, Robert GER DMSB Kawasaki 11:40.515 5 15 laps 2 laps 2:14.150 4 26.836
29 24 Simpson, Shaun GBR ACU Honda 16:34.689 4 16 laps 1 lap 2:03.767 1 29.087
30 141 Church, Tom GBR ACU KTM 34:58.055 3 17 laps 1 lap 2:06.040 3 28.562

2 ÈME MANCHE MX1

Holeshot de Goncalves..! Paulin en tête suivi de Pourcel.. Pourcel passe Paulin.. Mano a mano entre les deux français.. Chute de Bobryshev.. Gautier Paulin repasse Christophe Pourcel à 16 min.. Pourcel repasse en tête à 10 min de la fin..

MX1 – Grand Prix Race 2 – Classification
Pos Nr Rider Nat. Fed. Bike Time laps Diff. First Diff. Prev. Bestlaptime in lap Speed
1 377 Pourcel, Christophe FRA FFM Kawasaki 39:31.286 20 0:00.000 0:00.000 1:55.426 11 31.189
2 321 Paulin, Gautier FRA MCM Yamaha 39:45.366 20 0:14.080 0:14.080 1:53.644 10 31.678

3 7 Barragan, Jonathan ESP RFME Kawasaki 40:03.465 20 0:32.179 0:18.099 1:55.813 5 31.085
4 22 Strijbos, Kevin BEL FMB Suzuki 40:08.758 20 0:37.472 0:05.293 1:56.457 6 30.913
5 121 Boog, Xavier FRA FFM Kawasaki 40:25.684 20 0:54.398 0:16.926 1:57.383 12 30.669
6 999 Goncalves, Rui POR FMP Honda 40:41.680 20 1:10.394 0:15.996 1:57.572 5 30.62
7 10 Boissiere, Anthony FRA FFM Yamaha 40:53.885 20 1:22.599 0:12.205 1:58.946 8 30.266
8 39 Guarneri, Davide ITA FMI Kawasaki 41:09.661 20 1:38.375 0:15.776 1:59.222 10 30.196
9 24 Simpson, Shaun GBR ACU Honda 41:15.722 20 1:44.436 0:06.061 1:59.374 3 30.157
10 287 Schiffer, Marcus GER DMSB Suzuki 39:34.994 19 1 lap 1 lap 2:01.934 8 29.524
11 13 Monni, Manuel ITA FMI Honda 39:37.041 19 1 lap 0:02.047 2:00.845 8 29.79
12 52 Walkner, Matthias AUT OeAMTC KTM 39:39.633 19 1 lap 0:02.592 2:02.750 12 29.328
13 903 Balbi, Antonio Jorge BRA CBM Kawasaki 39:42.882 19 1 lap 0:03.249 2:02.015 4 29.505
14 60 Van Daele, Marvin BEL FMB Honda 39:54.968 19 1 lap 0:12.086 2:02.684 4 29.344
15 141 Church, Tom GBR ACU KTM 40:29.151 19 1 lap 0:34.183 2:03.429 8 29.167
16 777 Bobryshev, Evgeny RUS MFR Honda 40:50.773 19 1 lap 0:21.622 1:56.618 3 30.87
17 61 Brakke, Herjan NED KNMV Yamaha 41:03.418 19 1 lap 0:12.645 2:05.375 3 28.714
18 85 Compagnone, Felice ITA FMI Honda 41:24.550 19 1 lap 0:21.132 2:04.392 5 28.941
19 902 Cooper, Cody NZL MNZ Suzuki 41:45.171 19 1 lap 0:20.621 2:03.232 3 29.213
20 127 Eriksson, Toni FIN SML Kawasaki 39:42.018 18 2 laps 1 lap 2:06.077 3 28.554
21 84 Bracesco, Federico ITA FMI Suzuki 40:36.118 18 2 laps 0:54.100 2:10.158 5 27.659
22 41 Smith, Alfie GBR ACU Aprilia 41:13.432 18 2 laps 0:37.314 2:04.832 14 28.839
23 221 Valente, Alessandro ITA FMI Suzuki 40:07.102 15 5 laps 3 laps 2:07.862 9 28.155
24 63 Sturm, Robert GER DMSB Kawasaki 41:27.365 15 5 laps 1:20.263 2:13.403 5 26.986
25 74 Steinbergs, Ivo LAT LAMSF Kawasaki 28:21.910 13 7 laps 2 laps 2:05.782 2 28.621
26 115 Campano Jimenez, Carlos ESP RFME Yamaha 20:23.212 10 10 laps 3 laps 1:58.224 5 30.451
27 153 Maddii, Marco ITA FMI KTM 15:30.313 7 13 laps 3 laps 2:07.972 5 28.131
28 6 Leok, Tanel EST EMF TM 10:41.795 5 15 laps 2 laps 2:02.049 4 29.496
29 20 Aranda, Gregory FRA FFM Kawasaki 0:17.894 0 20 laps 5 laps 0:00.000 0 0

Première Victoire de GP MX1 Pour Gautier Paulin..

MX1 – GP Classification
Pos Nr Rider Nat. Fed. Bike Race 1 Race 2 Total
1 321 Paulin, Gautier FRA MCM Yamaha 25 22 47
2 377 Pourcel, Christophe FRA FFM Kawasaki 13 25 38

3 7 Barragan, Jonathan ESP RFME Kawasaki 18 20 38
4 22 Strijbos, Kevin BEL FMB Suzuki 20 18 38
5 121 Boog, Xavier FRA FFM Kawasaki 22 16 38
6 10 Boissiere, Anthony FRA FFM Yamaha 16 14 30

7 39 Guarneri, Davide ITA FMI Kawasaki 15 13 28
8 999 Goncalves, Rui POR FMP Honda 12 15 27
9 287 Schiffer, Marcus GER DMSB Suzuki 9 11 20
10 13 Monni, Manuel ITA FMI Honda 10 10 20
11 777 Bobryshev, Evgeny RUS MFR Honda 14 5 19
12 60 Van Daele, Marvin BEL FMB Honda 6 7 13
13 24 Simpson, Shaun GBR ACU Honda 0 12 12
14 20 Aranda, Gregory FRA FFM Kawasaki 11 0 11
15 52 Walkner, Matthias AUT OeAMTC KTM 0 9 9
16 903 Balbi, Antonio Jorge BRA CBM Kawasaki 0 8 8
17 6 Leok, Tanel EST EMF TM 8 0 8
18 61 Brakke, Herjan NED KNMV Yamaha 3 4 7
19 85 Compagnone, Felice ITA FMI Honda 4 3 7
20 902 Cooper, Cody NZL MNZ Suzuki 5 2 7..

MX1 – World Championship Classification
Pos Nr Rider Nat. Total BUL NED USA BRA FRA POR ESP SWE GER LAT BEL CZE GBR EUR ITA

1 222 Cairoli, A. ITA 596 14-11 25-22 22-10 25-22 22-20 22-22 22-25 16-22 22-22 25-25 25-25 25-18 20-25 20-22 - -
2 183 Frossard, S. FRA 472 25-22 22-16 11-0 20-16 25-22 20-14 25-12 25-25 20-6 22-22 18-15 16-9 22-22 0-0 - -
3 25 Desalle, C. BEL 461 22-25 16-15 25-25 18-18 10-25 25-25 16-20 13-14 16-20 13-13 22-18 22-25 - - - - - -
4 777 Bobryshev, E. RUS 444 9-18 11-14 15-20 13-10 15-16 18-18 13-14 22-18 25-25 20-20 15-20 18-0 - - 25-13 14-5
5 2 Nagl, M. GER 439 20-15 20-25 20-22 16-15 14-12 13-0 18-15 14-11 18-14 18-11 16-22 14-15 16-16 18-11 0-0
6 999 Goncalves, Rui POR 431 13-16 15-18 9-18 11-8 7-18 14-20 14-11 12-13 14-18 14-18 20-8 20-20 15-7 15-18 12-15
7 121 Boog, Xavier FRA 347 10-13 4-7 7-11 12-13 18-14 16-12 11-13 20-10 8-4 12-0 11-9 13-14 10-0 22-15 22-16
8 7 Barragan, J. ESP 326 15-20 7-11 12-13 4-12 6-15 8-13 12-16 0-12 13-15 0-10 12-7 10-11 7-18 9-0 18-20
9 19 Philippaerts, D. ITA 308 18-7 18-20 16-12 22-25 20-3 0-0 20-18 6-20 12-13 16-16 14-12 - - - - - - - -
10 22 Strijbos, K. BEL 295 12-14 5-3 18-16 10-14 12-10 10-10 4-5 9-9 0-0 4-0 5-6 15-13 8-13 16-16 20-18
11 9 de Dycker, Ken BEL 268 0-4 14-13 0-1 15-11 16-13 15-15 10-10 18-15 15-16 15-12 9-13 6-12 - - - - - -
12 6 Leok, Tanel EST 267 0-12 12-12 6-6 2-9 11-11 11-11 8-22 7-0 6-0 9-14 13-16 9-22 18-0 12-0 8-0
13 10 Boissiere, A. FRA 238 6-8 6-8 14-9 9-0 5-8 0-8 7-8 10-6 0-7 8-8 8-3 0-8 11-12 11-20 16-14
14 11 Ramon, Steve BEL 229 11-9 13-9 0-14 14-20 9-4 6-16 15-9 15-16 11-12 11-15 - - - - - - - - - -
15 24 Simpson, Shaun GBR 222 8-5 1-4 5-15 8-3 8-9 9-9 5-0 0-5 10-9 6-6 10-14 11-10 5-11 10-14 0-12
16 39 Guarneri, D. ITA 204 16-10 9-10 8-5 - - 2-5 12-0 9-0 0-8 9-0 10-9 0-0 12-5 13-10 14-0 15-13
17 377 Pourcel, C. FRA 132 - - - - - - - - - - - - - - - - 0-0 - - - - 8-16 25-20 0-25 13-25
18 20 Aranda, G. FRA 120 - - - - 4-7 7-5 0-7 0-0 - - 11-0 5-8 7-0 0-0 5-0 9-9 13-12 11-0..

MX2 – Pre-Qualifying Practice – Classification
Pos Nr Rider Nat. Fed. Bike Bestlaptime in lap Diff. First Diff. Prev. Tot. Laps Speed

1 84 Herlings, Jeffrey NED KNMV KTM 1:54.937 8 0:00.000 0:00.000 10 31.322
2 131 Aubin, Nicolas FRA FFM KTM 1:56.889 7 0:01.952 0:01.952 8 30.798
3 7 Tonus, Arnaud SUI FMS Yamaha 1:57.232 8 0:02.295 0:00.343 8 30.708
4 100 Searle, Tommy GBR ACU Kawasaki 1:57.962 6 0:03.025 0:00.730 9 30.518
5 94 Roczen, Ken GER DMSB KTM 1:58.074 10 0:03.137 0:00.112 11 30.489
6 99 Anstie, Max GBR AMA Kawasaki 1:59.216 7 0:04.279 0:01.142 7 30.197
7 911 Tixier, Jordi FRA FFM KTM 1:59.779 14 0:04.842 0:00.563 14 30.055
8 45 Nicholls, Jake GBR ACU KTM 2:00.167 7 0:05.230 0:00.388 8 29.958
9 77 Lupino, Alessandro ITA FMI Husqvarna 2:00.579 7 0:05.642 0:00.412 10 29.856
10 122 Ferrandis, Dylan FRA FFM Kawasaki 2:01.206 9 0:06.269 0:00.627 9 29.701
11 152 Petrov, Petar BUL BMF Yamaha 2:01.529 10 0:06.592 0:00.323 12 29.623
12 76 Rauchenecker, Pascal AUT OeAMTC KTM 2:01.600 10 0:06.663 0:00.071 11 29.605
13 430 Charlier, Christophe FRA FFM Yamaha 2:01.691 7 0:06.754 0:00.091 10 29.583
14 590 Triest, Nick BEL FMB KTM 2:01.998 13 0:07.061 0:00.307 13 29.509
15 17 Butron Oliva, Antonio Jose ESP RFME KTM 2:02.182 11 0:07.245 0:00.184 13 29.464
16 214 Zeni, Samuel ITA FMI Suzuki 2:02.191 10 0:07.254 0:00.009 10 29.462
17 170 Leib, Michael USA FSM Husqvarna 2:02.546 10 0:07.609 0:00.355 10 29.377
18 33 Lieber, Julien BEL MUL KTM 2:02.778 9 0:07.841 0:00.232 13 29.321
19 262 Del Segato, Giacomo ITA FMI KTM 2:02.874 7 0:07.937 0:00.096 9 29.298
20 68 Adam, David FRA FFM Yamaha 2:03.076 12 0:08.139 0:00.202 12 29.25
21 171 Bertuzzo, Pierfilippo ITA FMI Yamaha 2:03.742 11 0:08.805 0:00.666 11 29.093
22 165 Marazzo, Dario ITA FMI Honda 2:04.417 9 0:09.480 0:00.675 10 28.935
23 195 Justs, Roberts LAT LAMSF Honda 2:04.417 7 0:09.480 0:00.000 7 28.935
24 112 Heibye, Even NOR NMF KTM 2:04.453 9 0:09.516 0:00.036 9 28.927
25 34 Roelants, Joel BEL FMB KTM 2:05.070 7 0:10.133 0:00.617 7 28.784..

MANCHE QUALIFICATIVE MX2

Holeshot de Jeffrey Herlings..! Tixier bien parti (’3..).. Herlings va aller à la faute en sortant du terrain..! Arnaud Tonus second..! Searle en tête.. À 11 min de la fin de manche Arnaud Tonus pratique son effort et revient sur Searle.. Ferrandis 6 Ème.. Arnaud Tonus passe en tête à 3 min de la fin mais il va chuter dans le dernier tour en percutant un attardé..!

MX2 – Qualifying Race – Classification
Pos Nr Rider Nat. Fed. Bike Time laps Diff. First Diff. Prev. Bestlaptime in lap Speed

1 100 Searle, Tommy GBR ACU Kawasaki 25:44.451 13 0:00.000 0:00.000 1:55.157 12 31.262
2 7 Tonus, Arnaud SUI FMS Yamaha 26:06.026 13 0:21.575 0:21.575 1:55.467 4 31.178
3 99 Anstie, Max GBR AMA Kawasaki 26:16.540 13 0:32.089 0:10.514 1:57.046 4 30.757
4 94 Roczen, Ken GER DMSB KTM 26:20.805 13 0:36.354 0:04.265 1:58.548 7 30.367
5 911 Tixier, Jordi FRA FFM KTM 26:25.919 13 0:41.468 0:05.114 1:58.873 8 30.284
6 131 Aubin, Nicolas FRA FFM KTM 26:30.205 13 0:45.754 0:04.286 1:58.675 5 30.335

7 34 Roelants, Joel BEL FMB KTM 26:43.851 13 0:59.400 0:13.646 1:59.456 4 30.137
8 84 Herlings, Jeffrey NED KNMV KTM 26:52.848 13 1:08.397 0:08.997 1:58.781 10 30.308
9 76 Rauchenecker, Pascal AUT OeAMTC KTM 26:55.390 13 1:10.939 0:02.542 2:00.504 5 29.875
10 45 Nicholls, Jake GBR ACU KTM 26:56.291 13 1:11.840 0:00.901 1:59.128 8 30.22
11 430 Charlier, Christophe FRA FFM Yamaha 26:57.435 13 1:12.984 0:01.144 2:00.418 8 29.896
12 33 Lieber, Julien BEL MUL KTM 26:58.699 13 1:14.248 0:01.264 2:00.872 7 29.784
13 122 Ferrandis, Dylan FRA FFM Kawasaki 26:59.577 13 1:15.126 0:00.878 2:00.193 4 29.952
14 170 Leib, Michael USA FSM Husqvarna 27:00.476 13 1:16.025 0:00.899 2:01.045 12 29.741
15 17 Butron Oliva, Antonio Jose ESP RFME KTM 27:06.398 13 1:21.947 0:05.922 2:01.683 6 29.585
16 77 Lupino, Alessandro ITA FMI Husqvarna 27:07.604 13 1:23.153 0:01.206 2:00.874 4 29.783
17 152 Petrov, Petar BUL BMF Yamaha 27:17.062 13 1:32.611 0:09.458 2:01.298 4 29.679
18 128 Monticelli, Ivo ITA FMI Honda 27:21.543 13 1:37.092 0:04.481 2:01.832 5 29.549
19 837 Battig, Alessandro ITA FMI KTM 27:26.951 13 1:42.500 0:05.408 2:02.075 8 29.49
20 68 Adam, David FRA FFM Yamaha 27:32.600 13 1:48.149 0:05.649 2:03.586 8 29.1..

DIMANCHE

MX2 – Warm-up – Classification
Pos Nr Rider Nat. Fed. Bike Bestlaptime in lap Diff. First Diff. Prev. Tot. Laps Speed

1 84 Herlings, Jeffrey NED KNMV KTM 1:59.778 8 0:00.000 0:00.000 8 30.056
2 911 Tixier, Jordi FRA FFM KTM 2:01.808 8 0:02.030 0:02.030 9 29.555
3 7 Tonus, Arnaud SUI FMS Yamaha 2:02.132 6 0:02.354 0:00.324 8 29.476
4 100 Searle, Tommy GBR ACU Kawasaki 2:02.192 5 0:02.414 0:00.060 6 29.462
5 33 Lieber, Julien BEL MUL KTM 2:02.897 8 0:03.119 0:00.705 8 29.293
6 77 Lupino, Alessandro ITA FMI Husqvarna 2:02.976 6 0:03.198 0:00.079 8 29.274
7 131 Aubin, Nicolas FRA FFM KTM 2:03.150 5 0:03.372 0:00.174 6 29.233
8 99 Anstie, Max GBR AMA Kawasaki 2:04.456 7 0:04.678 0:01.306 8 28.926
9 590 Triest, Nick BEL FMB KTM 2:04.941 8 0:05.163 0:00.485 8 28.814
10 45 Nicholls, Jake GBR ACU KTM 2:04.987 5 0:05.209 0:00.046 7 28.803
11 152 Petrov, Petar BUL BMF Yamaha 2:05.090 4 0:05.312 0:00.103 6 28.779
12 214 Zeni, Samuel ITA FMI Suzuki 2:05.803 5 0:06.025 0:00.713 5 28.616
13 170 Leib, Michael USA FSM Husqvarna 2:05.903 6 0:06.125 0:00.100 6 28.593
14 128 Monticelli, Ivo ITA FMI Honda 2:06.285 7 0:06.507 0:00.382 7 28.507
15 34 Roelants, Joel BEL FMB KTM 2:06.361 5 0:06.583 0:00.076 8 28.49
16 94 Roczen, Ken GER DMSB KTM 2:06.680 7 0:06.902 0:00.319 8 28.418
17 122 Ferrandis, Dylan FRA FFM Kawasaki 2:06.825 5 0:07.047 0:00.145 6 28.386
18 171 Bertuzzo, Pierfilippo ITA FMI Yamaha 2:07.337 8 0:07.559 0:00.512 8 28.271
19 76 Rauchenecker, Pascal AUT OeAMTC KTM 2:07.549 8 0:07.771 0:00.212 8 28.224
20 112 Heibye, Even NOR NMF KTM 2:07.851 7 0:08.073 0:00.302 8 28.158
21 195 Justs, Roberts LAT LAMSF Honda 2:07.920 5 0:08.142 0:00.069 7 28.143
22 17 Butron Oliva, Antonio Jose ESP RFME KTM 2:07.931 5 0:08.153 0:00.011 8 28.14
23 388 Söderberg, Ludvig FIN SML Kawasaki 2:08.279 9 0:08.501 0:00.348 9 28.064
24 165 Marazzo, Dario ITA FMI Honda 2:08.612 7 0:08.834 0:00.333 8 27.991
25 68 Adam, David FRA FFM Yamaha 2:09.039 3 0:09.261 0:00.427 7 27.899
26 837 Battig, Alessandro ITA FMI KTM 2:10.261 7 0:10.483 0:01.222 7 27.637
27 262 Del Segato, Giacomo ITA FMI KTM 2:10.352 7 0:10.574 0:00.091 8 27.618
28 611 Cociu, Mihail MDA FRM Honda 2:10.702 6 0:10.924 0:00.350 7 27.544
29 300 Golovkin, Viacheslav RUS LAMSF Kawasaki 2:11.268 5 0:11.490 0:00.566 8 27.425
30 114 Booker, Jordan GBR ACU KTM 2:11.401 6 0:11.623 0:00.133 8 27.397
31 618 Terraneo, Stefano ITA FMI KTM 2:12.828 4 0:13.050 0:01.427 7 27.103
32 600 Ivanovs, Davis LAT LAMSF Kawasaki 2:13.478 4 0:13.700 0:00.650 6 26.971
33 550 Mitchell, Sean ZIM ZMSF KTM 2:15.041 1 0:15.263 0:01.563 3 26.659
34 116 Lucci, Paolo ITA FMI KTM 2:17.353 6 0:17.575 0:02.312 6 26.21
35 430 Charlier, Christophe FRA FFM Yamaha 2:20.671 2 0:20.893 0:03.318 7 25.592

1 ÈRE MANCHE MX2

Holeshot de Jeffrey Herlings.. Searle prend la tête suivi de Herlings et Tonus.. À 19 min de la fin Tixier remonte 6 Ème.. Chute de Charlier à 11 min de la fin, abandon de Roelants dans la foulée.. Manche très monotone..

MX2 – Grand Prix Race 1 – Classification
Pos Nr Rider Nat. Fed. Bike Time laps Diff. First Diff. Prev. Bestlaptime in lap Speed

1 100 Searle, Tommy GBR ACU Kawasaki 39:55.722 20 0:00.000 0:00.000 1:55.571 7 31.15
2 84 Herlings, Jeffrey NED KNMV KTM 40:07.881 20 0:12.159 0:12.159 1:55.934 6 31.052
3 7 Tonus, Arnaud SUI FMS Yamaha 40:21.115 20 0:25.393 0:13.234 1:57.445 3 30.653
4 99 Anstie, Max GBR AMA Kawasaki 40:34.095 20 0:38.373 0:12.980 1:57.746 9 30.574
5 94 Roczen, Ken GER DMSB KTM 40:54.307 20 0:58.585 0:20.212 1:58.881 8 30.282
6 131 Aubin, Nicolas FRA FFM KTM 41:10.842 20 1:15.120 0:16.535 1:59.876 8 30.031
7 45 Nicholls, Jake GBR ACU KTM 41:19.160 20 1:23.438 0:08.318 2:00.521 5 29.87
8 911 Tixier, Jordi FRA FFM KTM 41:36.463 20 1:40.741 0:17.303 2:00.234 6 29.942
9 122 Ferrandis, Dylan FRA FFM Kawasaki 41:45.266 20 1:49.544 0:08.803 2:01.896 9 29.533

10 17 Butron Oliva, Antonio Jose ESP RFME KTM 41:59.869 20 2:04.147 0:14.603 2:02.250 4 29.448
11 76 Rauchenecker, Pascal AUT OeAMTC KTM 40:00.091 19 1 lap 1 lap 2:02.654 6 29.351
12 590 Triest, Nick BEL FMB KTM 40:14.124 19 1 lap 0:14.033 2:02.463 5 29.397
13 68 Adam, David FRA FFM Yamaha 40:16.683 19 1 lap 0:02.559 2:02.772 9 29.323
14 170 Leib, Michael USA FSM Husqvarna 40:33.185 19 1 lap 0:16.502 2:01.777 7 29.562
15 112 Heibye, Even NOR NMF KTM 40:44.522 19 1 lap 0:11.337 2:03.628 9 29.12
16 128 Monticelli, Ivo ITA FMI Honda 40:49.380 19 1 lap 0:04.858 2:03.919 8 29.051
17 33 Lieber, Julien BEL MUL KTM 40:50.032 19 1 lap 0:00.652 2:03.633 9 29.118
18 171 Bertuzzo, Pierfilippo ITA FMI Yamaha 41:06.069 19 1 lap 0:16.037 2:04.867 4 28.831
19 388 Söderberg, Ludvig FIN SML Kawasaki 41:08.273 19 1 lap 0:02.204 2:06.007 6 28.57
20 214 Zeni, Samuel ITA FMI Suzuki 41:19.948 19 1 lap 0:11.675 2:03.045 6 29.258
21 195 Justs, Roberts LAT LAMSF Honda 41:30.109 19 1 lap 0:10.161 2:05.693 8 28.641
22 600 Ivanovs, Davis LAT LAMSF Kawasaki 41:34.964 19 1 lap 0:04.855 2:06.095 6 28.55
23 611 Cociu, Mihail MDA FRM Honda 40:02.195 18 2 laps 1 lap 2:06.207 17 28.525
24 300 Golovkin, Viacheslav RUS LAMSF Kawasaki 40:02.760 18 2 laps 0:00.565 2:06.920 18 28.364
25 837 Battig, Alessandro ITA FMI KTM 41:03.623 18 2 laps 1:00.863 2:07.942 5 28.138
26 116 Lucci, Paolo ITA FMI KTM 40:27.048 17 3 laps 1 lap 2:17.227 4 26.234
27 430 Charlier, Christophe FRA FFM Yamaha 36:59.726 16 4 laps 1 lap 2:01.150 10 29.715..

2 ÈME MANCHE MX2

Holeshot de Searle.. Nicolas Aubin second.. Chute d’Arnaud Tonus.. Chute de David Adam à 30 min de la fin (il abandonnera..).. Max Anstie va partir à la faute à 24 min.. Chute et abandon de Ken Roczen.. Herlings passe Searle à 21 min.. Jordi Tiixer 4 Ème.. Chute de Tommy Searle à 9 min + 2 tours de la fin..! Arnaud Tonus 6 Ème à 5 min..

MX2 – Grand Prix Race 2 – Classification
Pos Nr Rider Nat. Fed. Bike Time laps Diff. First Diff. Prev. Bestlaptime in lap Speed

1 84 Herlings, Jeffrey NED KNMV KTM 40:47.256 20 0:00.000 0:00.000 1:57.069 9 30.751
2 100 Searle, Tommy GBR ACU Kawasaki 41:04.169 20 0:16.913 0:16.913 1:58.268 11 30.439
3 131 Aubin, Nicolas FRA FFM KTM 41:33.071 20 0:45.815 0:28.902 2:01.556 5 29.616
4 99 Anstie, Max GBR AMA Kawasaki 41:40.627 20 0:53.371 0:07.556 2:00.972 14 29.759
5 7 Tonus, Arnaud SUI FMS Yamaha 41:57.220 20 1:09.964 0:16.593 1:59.644 18 30.089
6 76 Rauchenecker, Pascal AUT OeAMTC KTM 42:36.621 20 1:49.365 0:39.401 2:02.924 9 29.286
7 17 Butron Oliva, Antonio Jose ESP RFME KTM 42:40.517 20 1:53.261 0:03.896 2:05.266 12 28.739
8 430 Charlier, Christophe FRA FFM Yamaha 42:47.664 20 2:00.408 0:07.147 2:04.477 11 28.921
9 77 Lupino, Alessandro ITA FMI Husqvarna 40:51.380 19 1 lap 1 lap 2:05.801 12 28.617
10 911 Tixier, Jordi FRA FFM KTM 40:54.766 19 1 lap 0:03.386 2:03.857 7 29.066
11 45 Nicholls, Jake GBR ACU KTM 41:06.651 19 1 lap 0:11.885 2:06.023 9 28.566
12 122 Ferrandis, Dylan FRA FFM Kawasaki 41:21.402 19 1 lap 0:14.751 2:05.191 11 28.756
13 170 Leib, Michael USA FSM Husqvarna 41:29.262 19 1 lap 0:07.860 2:06.320 12 28.499
14 171 Bertuzzo, Pierfilippo ITA FMI Yamaha 41:48.935 19 1 lap 0:19.673 2:08.691 7 27.974
15 128 Monticelli, Ivo ITA FMI Honda 42:06.352 19 1 lap 0:17.417 2:07.361 7 28.266
16 112 Heibye, Even NOR NMF KTM 42:19.952 19 1 lap 0:13.600 2:07.364 7 28.265
17 195 Justs, Roberts LAT LAMSF Honda 42:22.331 19 1 lap 0:02.379 2:09.614 9 27.775
18 388 Söderberg, Ludvig FIN SML Kawasaki 42:32.789 19 1 lap 0:10.458 2:08.655 12 27.982
19 214 Zeni, Samuel ITA FMI Suzuki 40:55.565 18 2 laps 1 lap 2:08.928 7 27.923
20 114 Booker, Jordan GBR ACU KTM 41:11.921 18 2 laps 0:16.356 2:11.921 6 27.289
21 618 Terraneo, Stefano ITA FMI KTM 41:21.612 18 2 laps 0:09.691 2:12.482 11 27.174
22 262 Del Segato, Giacomo ITA FMI KTM 41:26.823 18 2 laps 0:05.211 2:14.232 10 26.819
23 165 Marazzo, Dario ITA FMI Honda 42:00.239 18 2 laps 0:33.416 2:14.015 10 26.863
24 116 Lucci, Paolo ITA FMI KTM 42:12.156 16 4 laps 2 laps 2:23.069 15 25.163
25 600 Ivanovs, Davis LAT LAMSF Kawasaki 20:09.535 9 11 laps 7 laps 2:08.092 8 28.105
26 837 Battig, Alessandro ITA FMI KTM 17:22.390 8 12 laps 1 lap 2:04.903 7 28.822
27 33 Lieber, Julien BEL MUL KTM 15:25.981 7 13 laps 1 lap 2:07.022 7 28.342
28 94 Roczen, Ken GER DMSB KTM 10:45.758 5 15 laps 2 laps 2:02.056 3 29.495
29 590 Triest, Nick BEL FMB KTM 11:27.759 5 15 laps 0:42.001 2:10.234 4 27.643
30 152 Petrov, Petar BUL BMF Yamaha 11:29.767 5 15 laps 0:02.008 2:08.415 5 28.034
31 68 Adam, David FRA FFM Yamaha 12:27.765 5 15 laps 0:57.998 2:07.536 3 28.227..

MX2 – GP Classification
Pos Nr Rider Nat. Fed. Bike Race 1 Race 2 Total

1 84 Herlings, Jeffrey NED KNMV KTM 22 25 47
2 100 Searle, Tommy GBR ACU Kawasaki 25 22 47
3 99 Anstie, Max GBR AMA Kawasaki 18 18 36
4 7 Tonus, Arnaud SUI FMS Yamaha 20 16 36
5 131 Aubin, Nicolas FRA FFM KTM 15 20 35
6 76 Rauchenecker, Pascal AUT OeAMTC KTM 10 15 25
7 17 Butron Oliva, Antonio Jose ESP RFME KTM 11 14 25
8 911 Tixier, Jordi FRA FFM KTM 13 11 24
9 45 Nicholls, Jake GBR ACU KTM 14 10 24
10 122 Ferrandis, Dylan FRA FFM Kawasaki 12 9 21
11 94 Roczen, Ken GER DMSB KTM 16 0 16
12 170 Leib, Michael USA FSM Husqvarna 7 8 15
13 430 Charlier, Christophe FRA FFM Yamaha 0 13 13
14 77 Lupino, Alessandro ITA FMI Husqvarna 0 12 12
15 128 Monticelli, Ivo ITA FMI Honda 5 6 11
16 112 Heibye, Even NOR NMF KTM 6 5 11
17 171 Bertuzzo, Pierfilippo ITA FMI Yamaha 3 7 10
18 590 Triest, Nick BEL FMB KTM 9 0 9
19 68 Adam, David FRA FFM Yamaha 8 0 8..

MX2 – World Championship Classification
Pos Nr Rider Nat. Total BUL NED USA BRA FRA POR ESP SWE GER LAT BEL CZE GBR EUR ITA

1 94 Roczen, Ken GER 651 25-25 22-22 25-25 25-22 25-10 25-0 25-25 25-25 25-20 25-25 22-22 25-25 25-25 25-20 16-0
2 84 Herlings, J. NED 632 16-20 25-25 22-22 22-25 14-22 22-22 20-18 20-22 22-18 20-22 25-25 22-22 14-20 16-22 22-25
3 100 Searle, Tommy GBR 573 22-22 20-20 16-20 18-18 18-25 0-25 22-22 0-18 20-22 22-20 15-15 15-20 22-22 22-25 25-22
4 21 Paulin, G. FRA 458 20-14 16-15 15-0 20-20 22-18 16-20 18-20 22-20 18-25 13-11 14-16 0-16 18-18 18-15 - -
5 7 Tonus, Arnaud SUI 427 18-13 18-18 14-0 14-13 16-14 10-18 15-16 15-13 15-16 18-0 11-10 12-18 12-16 20-18 20-16
6 99 Anstie, Max GBR 405 13-15 11-12 20-16 15-14 4-15 18-14 0-0 18-16 3-11 16-18 18-18 18-15 11-13 11-16 18-18
7 131 Aubin, Nicolas FRA 304 12-12 12-0 9-14 7-7 15-16 5-13 16-13 12-15 14-0 15-0 0-0 20-0 7-8 15-12 15-20
8 338 Osborne, Z. USA 295 14-18 15-13 12-18 16-16 20-20 20-16 0-15 10-11 16-15 14-16 - - - - - - - - - -
9 151 Kullas, Harri FIN 287 11-7 14-14 18-10 10-12 11-12 11-12 11-11 5-10 8-10 12-15 12-13 8-11 8-11 - - - -
10 34 Roelants, Joel BEL 253 10-9 13-16 7-12 13-10 13-11 15-9 14-14 0-0 - - - - 0-14 14-12 20-0 13-14 0-0
11 45 Nicholls, Jake GBR 229 - - - - - - - - 10-8 8-10 7-10 13-0 13-13 9-13 13-12 16-10 13-15 12-0 14-10
12 430 Charlier, C. FRA 225 7-11 7-11 13-13 12-15 0-13 13-15 - - 14-14 12-0 0-0 - - 9-0 10-14 0-9 0-13
13 911 Tixier, Jordi FRA 213 8-3 3-6 8-11 11-11 9-0 0-1 4-8 0-8 5-3 8-8 8-8 11-8 9-12 7-11 13-11
14 17 Butron Oliva, A. ESP 172 4-2 8-7 - - - - 7-1 12-11 10-0 0-0 10-12 10-0 5-9 10-0 0-10 9-10 11-14
15 77 Lupino, A. ITA 159 1-10 0-3 6-7 9-4 0-7 9-6 8-9 9-5 4-9 5-10 0-3 0-0 - - 10-13 0-12
16 152 Petrov, Petar BUL 140 3-0 0-10 10-3 5-0 0-3 6-4 6-0 7-7 6-0 7-9 16-0 5-9 3-5 8-8 0-0
17 89 van Horebeek, J. BEL 139 15-16 - - - - - - - - - - - - 16-12 - - - - 20-20 6-13 15-0 6-0 - -
18 76 Rauchenecker, P. AUT 127 5-5 4-0 3-8 8-9 6-4 0-0 0-3 0-0 2-6 0-0 6-6 7-0 4-9 0-7 10-15
19 37 Teillet, V. FRA 125 0-0 - - - - - - - - - - - - 11-9 11-14 11-14 7-5 13-14 16-0 - - - -..

(Photos : Ray Archer/KTM & Youthstream)

A voir aussi :

2 commentaires sur “MX FIM – GP D’ITALIE : RÉSULTATS ET INFOS”

  1. start dit :

    Ouais !!! je persiste et signe prendre , si Steven HS , le résultat du GP , le gars GAUTIER c est du grand art

  2. start dit :

    tiens , le gars qu a fini 1er faut le mettre en mx1 pour les nations à st Jean d angely … et si , malheureusement Steven est toujours hs , mettre celui qui a fait 2 !!! en open